sensor_id;sensor_type;location;lat;lon;timestamp;temperature;humidity
23089;DHT22;11713;48.506;8.966;2023-04-06T00:01:55;1.70;99.90
23089;DHT22;11713;48.506;8.966;2023-04-06T00:04:21;1.60;99.90
23089;DHT22;11713;48.506;8.966;2023-04-06T00:06:46;1.40;99.90
23089;DHT22;11713;48.506;8.966;2023-04-06T00:09:12;1.30;99.90
23089;DHT22;11713;48.506;8.966;2023-04-06T00:11:38;1.20;99.90
23089;DHT22;11713;48.506;8.966;2023-04-06T00:14:04;1.20;99.90
23089;DHT22;11713;48.506;8.966;2023-04-06T00:16:29;1.40;99.90
23089;DHT22;11713;48.506;8.966;2023-04-06T00:18:55;1.40;99.90
23089;DHT22;11713;48.506;8.966;2023-04-06T00:21:21;1.40;99.90
23089;DHT22;11713;48.506;8.966;2023-04-06T00:23:47;1.40;99.90
23089;DHT22;11713;48.506;8.966;2023-04-06T00:26:13;1.20;99.90
23089;DHT22;11713;48.506;8.966;2023-04-06T00:28:44;1.20;99.90
23089;DHT22;11713;48.506;8.966;2023-04-06T00:31:09;1.20;99.90
23089;DHT22;11713;48.506;8.966;2023-04-06T00:33:35;1.20;99.90
23089;DHT22;11713;48.506;8.966;2023-04-06T00:36:01;1.20;99.90
23089;DHT22;11713;48.506;8.966;2023-04-06T00:38:27;1.20;99.90
23089;DHT22;11713;48.506;8.966;2023-04-06T00:40:52;1.20;99.90
23089;DHT22;11713;48.506;8.966;2023-04-06T00:43:18;1.20;99.90
23089;DHT22;11713;48.506;8.966;2023-04-06T00:45:44;1.30;99.90
23089;DHT22;11713;48.506;8.966;2023-04-06T00:48:10;1.40;99.90
23089;DHT22;11713;48.506;8.966;2023-04-06T00:50:36;1.40;99.90
23089;DHT22;11713;48.506;8.966;2023-04-06T00:53:02;1.30;99.90
23089;DHT22;11713;48.506;8.966;2023-04-06T00:55:28;1.30;99.90
23089;DHT22;11713;48.506;8.966;2023-04-06T00:57:59;1.30;99.90
23089;DHT22;11713;48.506;8.966;2023-04-06T01:00:34;1.40;99.90
23089;DHT22;11713;48.506;8.966;2023-04-06T01:03:01;1.50;99.90
23089;DHT22;11713;48.506;8.966;2023-04-06T01:05:36;1.60;99.90
23089;DHT22;11713;48.506;8.966;2023-04-06T01:08:07;1.50;99.90
23089;DHT22;11713;48.506;8.966;2023-04-06T01:10:33;1.50;99.90
23089;DHT22;11713;48.506;8.966;2023-04-06T01:13:15;1.40;99.90
23089;DHT22;11713;48.506;8.966;2023-04-06T01:15:47;1.40;99.90
23089;DHT22;11713;48.506;8.966;2023-04-06T01:18:28;1.50;99.90
23089;DHT22;11713;48.506;8.966;2023-04-06T01:21:08;1.40;99.90
23089;DHT22;11713;48.506;8.966;2023-04-06T01:23:46;1.30;99.90
23089;DHT22;11713;48.506;8.966;2023-04-06T01:26:15;1.20;99.90
23089;DHT22;11713;48.506;8.966;2023-04-06T01:28:41;1.20;99.90
23089;DHT22;11713;48.506;8.966;2023-04-06T01:31:28;1.10;99.90
23089;DHT22;11713;48.506;8.966;2023-04-06T01:33:54;1.10;99.90
23089;DHT22;11713;48.506;8.966;2023-04-06T01:36:23;1.00;99.90
23089;DHT22;11713;48.506;8.966;2023-04-06T01:38:57;1.00;99.90
23089;DHT22;11713;48.506;8.966;2023-04-06T01:41:30;1.00;99.90
23089;DHT22;11713;48.506;8.966;2023-04-06T01:43:56;1.00;99.90
23089;DHT22;11713;48.506;8.966;2023-04-06T01:46:26;1.00;99.90
23089;DHT22;11713;48.506;8.966;2023-04-06T01:48:52;1.00;99.90
23089;DHT22;11713;48.506;8.966;2023-04-06T01:51:39;0.90;99.90
23089;DHT22;11713;48.506;8.966;2023-04-06T01:54:08;0.80;99.90
23089;DHT22;11713;48.506;8.966;2023-04-06T01:56:55;0.70;99.90
23089;DHT22;11713;48.506;8.966;2023-04-06T01:59:42;0.60;99.90
23089;DHT22;11713;48.506;8.966;2023-04-06T02:02:28;0.70;99.90
23089;DHT22;11713;48.506;8.966;2023-04-06T02:05:00;0.70;99.90
23089;DHT22;11713;48.506;8.966;2023-04-06T02:07:27;0.70;99.90
23089;DHT22;11713;48.506;8.966;2023-04-06T02:09:54;0.70;99.90
23089;DHT22;11713;48.506;8.966;2023-04-06T02:12:25;0.70;99.90
23089;DHT22;11713;48.506;8.966;2023-04-06T02:14:51;0.70;99.90
23089;DHT22;11713;48.506;8.966;2023-04-06T02:17:17;0.70;99.90
23089;DHT22;11713;48.506;8.966;2023-04-06T02:19:43;0.80;99.90
23089;DHT22;11713;48.506;8.966;2023-04-06T02:22:09;0.80;99.90
23089;DHT22;11713;48.506;8.966;2023-04-06T02:24:35;0.70;99.90
23089;DHT22;11713;48.506;8.966;2023-04-06T02:27:01;0.60;99.90
23089;DHT22;11713;48.506;8.966;2023-04-06T02:29:27;0.60;99.90
23089;DHT22;11713;48.506;8.966;2023-04-06T02:31:52;0.60;99.90
23089;DHT22;11713;48.506;8.966;2023-04-06T02:34:19;0.50;99.90
23089;DHT22;11713;48.506;8.966;2023-04-06T02:36:49;0.50;99.90
23089;DHT22;11713;48.506;8.966;2023-04-06T02:39:15;0.50;99.90
23089;DHT22;11713;48.506;8.966;2023-04-06T02:41:41;0.40;99.90
23089;DHT22;11713;48.506;8.966;2023-04-06T02:44:08;0.40;99.90
23089;DHT22;11713;48.506;8.966;2023-04-06T02:46:40;0.40;99.90
23089;DHT22;11713;48.506;8.966;2023-04-06T02:49:07;0.40;99.90
23089;DHT22;11713;48.506;8.966;2023-04-06T02:51:34;0.40;99.90
23089;DHT22;11713;48.506;8.966;2023-04-06T02:54:32;0.40;99.90
23089;DHT22;11713;48.506;8.966;2023-04-06T02:56:59;0.50;99.90
23089;DHT22;11713;48.506;8.966;2023-04-06T02:59:35;0.40;99.90
23089;DHT22;11713;48.506;8.966;2023-04-06T03:02:07;0.40;99.90
23089;DHT22;11713;48.506;8.966;2023-04-06T03:04:34;0.50;99.90
23089;DHT22;11713;48.506;8.966;2023-04-06T03:07:03;0.60;99.90
23089;DHT22;11713;48.506;8.966;2023-04-06T03:09:37;0.60;99.90
23089;DHT22;11713;48.506;8.966;2023-04-06T03:12:03;0.50;99.90
23089;DHT22;11713;48.506;8.966;2023-04-06T03:14:33;0.50;99.90
23089;DHT22;11713;48.506;8.966;2023-04-06T03:16:59;0.50;99.90
23089;DHT22;11713;48.506;8.966;2023-04-06T03:19:25;0.50;99.90
23089;DHT22;11713;48.506;8.966;2023-04-06T03:21:52;0.50;99.90
23089;DHT22;11713;48.506;8.966;2023-04-06T03:24:20;0.40;99.90
23089;DHT22;11713;48.506;8.966;2023-04-06T03:26:45;0.30;99.90
23089;DHT22;11713;48.506;8.966;2023-04-06T03:29:11;0.20;99.90
23089;DHT22;11713;48.506;8.966;2023-04-06T03:31:37;0.20;99.90
23089;DHT22;11713;48.506;8.966;2023-04-06T03:34:22;0.10;99.90
23089;DHT22;11713;48.506;8.966;2023-04-06T03:36:48;0.10;99.90
23089;DHT22;11713;48.506;8.966;2023-04-06T03:39:14;0.10;99.90
23089;DHT22;11713;48.506;8.966;2023-04-06T03:41:42;0.10;99.90
23089;DHT22;11713;48.506;8.966;2023-04-06T03:44:27;0.10;99.90
23089;DHT22;11713;48.506;8.966;2023-04-06T03:46:52;0.10;99.90
23089;DHT22;11713;48.506;8.966;2023-04-06T03:49:19;0.00;99.90
23089;DHT22;11713;48.506;8.966;2023-04-06T03:51:49;0.00;99.90
23089;DHT22;11713;48.506;8.966;2023-04-06T03:54:14;0.00;99.90
23089;DHT22;11713;48.506;8.966;2023-04-06T03:56:42;0.00;99.90
23089;DHT22;11713;48.506;8.966;2023-04-06T03:59:07;0.00;99.90
23089;DHT22;11713;48.506;8.966;2023-04-06T04:01:33;0.00;99.90
23089;DHT22;11713;48.506;8.966;2023-04-06T04:03:59;0.00;99.90
23089;DHT22;11713;48.506;8.966;2023-04-06T04:06:25;0.00;99.90
23089;DHT22;11713;48.506;8.966;2023-04-06T04:08:51;0.00;99.90
23089;DHT22;11713;48.506;8.966;2023-04-06T04:11:16;0.10;99.90
23089;DHT22;11713;48.506;8.966;2023-04-06T04:13:43;0.10;99.90
23089;DHT22;11713;48.506;8.966;2023-04-06T04:16:09;0.10;99.90
23089;DHT22;11713;48.506;8.966;2023-04-06T04:18:35;0.10;99.90
23089;DHT22;11713;48.506;8.966;2023-04-06T04:21:02;0.00;99.90
23089;DHT22;11713;48.506;8.966;2023-04-06T04:23:28;0.00;99.90
23089;DHT22;11713;48.506;8.966;2023-04-06T04:25:53;-0.10;99.90
23089;DHT22;11713;48.506;8.966;2023-04-06T04:28:19;-0.10;99.90
23089;DHT22;11713;48.506;8.966;2023-04-06T04:30:46;-0.10;99.90
23089;DHT22;11713;48.506;8.966;2023-04-06T04:33:13;-0.20;99.90
23089;DHT22;11713;48.506;8.966;2023-04-06T04:35:40;-0.20;99.90
23089;DHT22;11713;48.506;8.966;2023-04-06T04:38:07;-0.20;99.90
23089;DHT22;11713;48.506;8.966;2023-04-06T04:40:36;-0.20;99.90
23089;DHT22;11713;48.506;8.966;2023-04-06T04:43:06;-0.30;99.90
23089;DHT22;11713;48.506;8.966;2023-04-06T04:45:33;-0.30;99.90
23089;DHT22;11713;48.506;8.966;2023-04-06T04:48:08;-0.30;99.90
23089;DHT22;11713;48.506;8.966;2023-04-06T04:50:46;-0.40;99.90
23089;DHT22;11713;48.506;8.966;2023-04-06T04:53:14;-0.40;99.90
23089;DHT22;11713;48.506;8.966;2023-04-06T04:55:42;-0.40;99.90
23089;DHT22;11713;48.506;8.966;2023-04-06T04:58:09;-0.50;99.90
23089;DHT22;11713;48.506;8.966;2023-04-06T05:00:49;-0.50;99.90
23089;DHT22;11713;48.506;8.966;2023-04-06T05:03:25;-0.50;99.90
23089;DHT22;11713;48.506;8.966;2023-04-06T05:06:05;-0.50;99.90
23089;DHT22;11713;48.506;8.966;2023-04-06T05:08:33;-0.50;99.90
23089;DHT22;11713;48.506;8.966;2023-04-06T05:11:00;-0.50;99.90
23089;DHT22;11713;48.506;8.966;2023-04-06T05:13:30;-0.60;99.90
23089;DHT22;11713;48.506;8.966;2023-04-06T05:15:57;-0.60;99.90
23089;DHT22;11713;48.506;8.966;2023-04-06T05:18:27;-0.50;99.90
23089;DHT22;11713;48.506;8.966;2023-04-06T05:20:53;-0.40;99.90
23089;DHT22;11713;48.506;8.966;2023-04-06T05:23:26;-0.50;99.90
23089;DHT22;11713;48.506;8.966;2023-04-06T05:25:52;-0.40;99.90
23089;DHT22;11713;48.506;8.966;2023-04-06T05:28:21;-0.50;99.90
23089;DHT22;11713;48.506;8.966;2023-04-06T05:30:47;-0.60;99.90
23089;DHT22;11713;48.506;8.966;2023-04-06T05:33:14;-0.60;99.90
23089;DHT22;11713;48.506;8.966;2023-04-06T05:35:55;-0.60;99.90
23089;DHT22;11713;48.506;8.966;2023-04-06T05:38:22;-0.60;99.90
23089;DHT22;11713;48.506;8.966;2023-04-06T05:40:48;-0.50;99.90
23089;DHT22;11713;48.506;8.966;2023-04-06T05:43:17;-0.40;99.90
23089;DHT22;11713;48.506;8.966;2023-04-06T05:45:50;-0.30;99.90
23089;DHT22;11713;48.506;8.966;2023-04-06T05:48:15;-0.10;99.90
23089;DHT22;11713;48.506;8.966;2023-04-06T05:50:41;0.00;99.90
23089;DHT22;11713;48.506;8.966;2023-04-06T05:53:09;0.20;99.90
23089;DHT22;11713;48.506;8.966;2023-04-06T05:55:40;0.30;99.90
23089;DHT22;11713;48.506;8.966;2023-04-06T05:58:11;0.40;99.90
23089;DHT22;11713;48.506;8.966;2023-04-06T06:00:37;0.50;99.90
23089;DHT22;11713;48.506;8.966;2023-04-06T06:03:05;0.60;99.90
23089;DHT22;11713;48.506;8.966;2023-04-06T06:05:33;0.70;99.90
23089;DHT22;11713;48.506;8.966;2023-04-06T06:08:06;0.90;99.90
23089;DHT22;11713;48.506;8.966;2023-04-06T06:10:33;0.90;99.90
23089;DHT22;11713;48.506;8.966;2023-04-06T06:12:59;1.00;99.90
23089;DHT22;11713;48.506;8.966;2023-04-06T06:15:26;1.00;99.90
23089;DHT22;11713;48.506;8.966;2023-04-06T06:17:52;1.10;99.90
23089;DHT22;11713;48.506;8.966;2023-04-06T06:20:17;1.20;99.90
23089;DHT22;11713;48.506;8.966;2023-04-06T06:22:43;1.30;99.90
23089;DHT22;11713;48.506;8.966;2023-04-06T06:25:15;1.50;99.90
23089;DHT22;11713;48.506;8.966;2023-04-06T06:27:41;1.50;99.90
23089;DHT22;11713;48.506;8.966;2023-04-06T06:30:08;1.70;99.90
23089;DHT22;11713;48.506;8.966;2023-04-06T06:32:38;1.70;99.90
23089;DHT22;11713;48.506;8.966;2023-04-06T06:35:04;1.80;99.90
23089;DHT22;11713;48.506;8.966;2023-04-06T06:37:32;1.90;99.90
23089;DHT22;11713;48.506;8.966;2023-04-06T06:39:59;2.00;99.90
23089;DHT22;11713;48.506;8.966;2023-04-06T06:42:25;2.10;99.90
23089;DHT22;11713;48.506;8.966;2023-04-06T06:45:17;2.20;99.90
23089;DHT22;11713;48.506;8.966;2023-04-06T06:47:45;2.30;99.90
23089;DHT22;11713;48.506;8.966;2023-04-06T06:50:11;2.40;99.90
23089;DHT22;11713;48.506;8.966;2023-04-06T06:52:36;2.40;99.90
23089;DHT22;11713;48.506;8.966;2023-04-06T06:55:02;2.50;99.90
23089;DHT22;11713;48.506;8.966;2023-04-06T06:57:28;2.40;99.90
23089;DHT22;11713;48.506;8.966;2023-04-06T06:59:54;2.50;99.90
23089;DHT22;11713;48.506;8.966;2023-04-06T07:02:21;2.70;99.90
23089;DHT22;11713;48.506;8.966;2023-04-06T07:04:50;2.70;99.90
23089;DHT22;11713;48.506;8.966;2023-04-06T07:07:16;2.90;99.90
23089;DHT22;11713;48.506;8.966;2023-04-06T07:09:42;3.10;99.90
23089;DHT22;11713;48.506;8.966;2023-04-06T07:12:08;3.30;99.90
23089;DHT22;11713;48.506;8.966;2023-04-06T07:14:34;3.40;99.90
23089;DHT22;11713;48.506;8.966;2023-04-06T07:17:01;3.50;99.90
23089;DHT22;11713;48.506;8.966;2023-04-06T07:19:29;3.60;99.90
23089;DHT22;11713;48.506;8.966;2023-04-06T07:21:56;3.70;99.90
23089;DHT22;11713;48.506;8.966;2023-04-06T07:24:22;3.70;99.90
23089;DHT22;11713;48.506;8.966;2023-04-06T07:26:48;3.80;99.90
23089;DHT22;11713;48.506;8.966;2023-04-06T07:29:15;3.90;99.90
23089;DHT22;11713;48.506;8.966;2023-04-06T07:31:41;4.00;99.90
23089;DHT22;11713;48.506;8.966;2023-04-06T07:34:07;4.20;99.90
23089;DHT22;11713;48.506;8.966;2023-04-06T07:36:35;4.30;99.90
23089;DHT22;11713;48.506;8.966;2023-04-06T07:39:00;4.40;99.90
23089;DHT22;11713;48.506;8.966;2023-04-06T07:41:26;4.50;99.90
23089;DHT22;11713;48.506;8.966;2023-04-06T07:43:53;4.60;99.90
23089;DHT22;11713;48.506;8.966;2023-04-06T07:46:18;4.60;99.90
23089;DHT22;11713;48.506;8.966;2023-04-06T07:48:44;4.70;99.90
23089;DHT22;11713;48.506;8.966;2023-04-06T07:51:10;4.90;99.90
23089;DHT22;11713;48.506;8.966;2023-04-06T07:53:40;5.00;99.90
23089;DHT22;11713;48.506;8.966;2023-04-06T07:56:06;5.10;99.90
23089;DHT22;11713;48.506;8.966;2023-04-06T07:58:32;5.20;99.90
23089;DHT22;11713;48.506;8.966;2023-04-06T08:00:58;5.40;99.90
23089;DHT22;11713;48.506;8.966;2023-04-06T08:03:24;5.60;99.90
23089;DHT22;11713;48.506;8.966;2023-04-06T08:05:51;5.70;99.90
23089;DHT22;11713;48.506;8.966;2023-04-06T08:08:19;5.90;99.90
23089;DHT22;11713;48.506;8.966;2023-04-06T08:10:47;6.00;99.90
23089;DHT22;11713;48.506;8.966;2023-04-06T08:13:14;6.20;99.90
23089;DHT22;11713;48.506;8.966;2023-04-06T08:15:40;6.30;99.90
23089;DHT22;11713;48.506;8.966;2023-04-06T08:18:05;6.50;99.90
23089;DHT22;11713;48.506;8.966;2023-04-06T08:20:31;6.70;99.90
23089;DHT22;11713;48.506;8.966;2023-04-06T08:22:57;6.80;99.90
23089;DHT22;11713;48.506;8.966;2023-04-06T08:25:23;7.00;99.90
23089;DHT22;11713;48.506;8.966;2023-04-06T08:27:48;7.20;99.90
23089;DHT22;11713;48.506;8.966;2023-04-06T08:30:15;7.30;99.90
23089;DHT22;11713;48.506;8.966;2023-04-06T08:32:41;7.40;99.90
23089;DHT22;11713;48.506;8.966;2023-04-06T08:35:08;7.60;99.90
23089;DHT22;11713;48.506;8.966;2023-04-06T08:37:33;7.80;99.90
23089;DHT22;11713;48.506;8.966;2023-04-06T08:39:59;7.90;99.90
23089;DHT22;11713;48.506;8.966;2023-04-06T08:42:26;8.00;99.90
23089;DHT22;11713;48.506;8.966;2023-04-06T08:44:55;8.20;99.90
23089;DHT22;11713;48.506;8.966;2023-04-06T08:47:22;8.50;99.90
23089;DHT22;11713;48.506;8.966;2023-04-06T08:49:49;8.30;99.90
23089;DHT22;11713;48.506;8.966;2023-04-06T08:52:18;8.50;99.90
23089;DHT22;11713;48.506;8.966;2023-04-06T08:54:44;8.60;99.90
23089;DHT22;11713;48.506;8.966;2023-04-06T08:57:13;8.70;99.90
23089;DHT22;11713;48.506;8.966;2023-04-06T08:59:41;8.90;99.90
23089;DHT22;11713;48.506;8.966;2023-04-06T09:02:12;9.10;99.90
23089;DHT22;11713;48.506;8.966;2023-04-06T09:04:47;9.20;99.90
23089;DHT22;11713;48.506;8.966;2023-04-06T09:07:14;9.40;99.90
23089;DHT22;11713;48.506;8.966;2023-04-06T09:09:41;9.40;99.90
23089;DHT22;11713;48.506;8.966;2023-04-06T09:12:29;9.60;99.90
23089;DHT22;11713;48.506;8.966;2023-04-06T09:14:57;9.70;99.90
23089;DHT22;11713;48.506;8.966;2023-04-06T09:17:24;9.90;99.90
23089;DHT22;11713;48.506;8.966;2023-04-06T09:19:50;10.00;99.90
23089;DHT22;11713;48.506;8.966;2023-04-06T09:22:17;10.20;99.90
23089;DHT22;11713;48.506;8.966;2023-04-06T09:24:45;10.30;99.90
23089;DHT22;11713;48.506;8.966;2023-04-06T09:27:12;10.50;99.90
23089;DHT22;11713;48.506;8.966;2023-04-06T09:29:38;10.60;99.90
23089;DHT22;11713;48.506;8.966;2023-04-06T09:32:05;10.60;99.90
23089;DHT22;11713;48.506;8.966;2023-04-06T09:36:59;10.60;99.90
23089;DHT22;11713;48.506;8.966;2023-04-06T09:39:26;10.70;99.90
23089;DHT22;11713;48.506;8.966;2023-04-06T09:41:53;10.80;99.90
23089;DHT22;11713;48.506;8.966;2023-04-06T09:44:20;10.90;99.90
23089;DHT22;11713;48.506;8.966;2023-04-06T09:46:47;11.00;99.90
23089;DHT22;11713;48.506;8.966;2023-04-06T09:49:14;11.20;99.90
23089;DHT22;11713;48.506;8.966;2023-04-06T09:51:47;11.20;99.90
23089;DHT22;11713;48.506;8.966;2023-04-06T09:54:22;11.10;99.90
23089;DHT22;11713;48.506;8.966;2023-04-06T10:06:33;12.00;99.90
23089;DHT22;11713;48.506;8.966;2023-04-06T10:09:24;11.50;99.90
23089;DHT22;11713;48.506;8.966;2023-04-06T10:11:51;11.50;99.90
23089;DHT22;11713;48.506;8.966;2023-04-06T10:14:17;11.60;99.90
23089;DHT22;11713;48.506;8.966;2023-04-06T10:16:43;11.50;99.90
23089;DHT22;11713;48.506;8.966;2023-04-06T10:19:21;11.50;99.90
23089;DHT22;11713;48.506;8.966;2023-04-06T10:21:54;11.40;99.90
23089;DHT22;11713;48.506;8.966;2023-04-06T10:24:20;11.60;99.90
23089;DHT22;11713;48.506;8.966;2023-04-06T10:27:01;11.70;99.90
23089;DHT22;11713;48.506;8.966;2023-04-06T10:29:27;12.00;99.90
23089;DHT22;11713;48.506;8.966;2023-04-06T10:31:53;12.20;99.90
23089;DHT22;11713;48.506;8.966;2023-04-06T10:34:21;12.50;99.90
23089;DHT22;11713;48.506;8.966;2023-04-06T10:36:47;12.50;99.90
23089;DHT22;11713;48.506;8.966;2023-04-06T10:39:13;12.70;99.90
23089;DHT22;11713;48.506;8.966;2023-04-06T10:41:45;12.60;99.90
23089;DHT22;11713;48.506;8.966;2023-04-06T10:44:24;12.80;99.90
23089;DHT22;11713;48.506;8.966;2023-04-06T10:46:57;12.80;99.90
23089;DHT22;11713;48.506;8.966;2023-04-06T10:49:25;12.80;99.90
23089;DHT22;11713;48.506;8.966;2023-04-06T10:51:54;12.90;99.90
23089;DHT22;11713;48.506;8.966;2023-04-06T10:54:21;12.80;99.90
23089;DHT22;11713;48.506;8.966;2023-04-06T10:56:49;12.80;99.90
23089;DHT22;11713;48.506;8.966;2023-04-06T10:59:22;13.00;99.90
23089;DHT22;11713;48.506;8.966;2023-04-06T11:01:48;12.90;99.70
23089;DHT22;11713;48.506;8.966;2023-04-06T11:04:18;13.00;99.90
23089;DHT22;11713;48.506;8.966;2023-04-06T11:06:48;13.00;98.40
23089;DHT22;11713;48.506;8.966;2023-04-06T11:09:27;13.10;99.60
23089;DHT22;11713;48.506;8.966;2023-04-06T11:11:54;13.30;98.10
23089;DHT22;11713;48.506;8.966;2023-04-06T11:14:21;13.30;97.10
23089;DHT22;11713;48.506;8.966;2023-04-06T11:16:48;13.50;96.70
23089;DHT22;11713;48.506;8.966;2023-04-06T11:19:15;13.50;99.50
23089;DHT22;11713;48.506;8.966;2023-04-06T11:21:45;13.50;97.20
23089;DHT22;11713;48.506;8.966;2023-04-06T11:24:21;13.40;97.10
23089;DHT22;11713;48.506;8.966;2023-04-06T11:26:58;13.30;95.80
23089;DHT22;11713;48.506;8.966;2023-04-06T11:29:28;13.30;94.50
23089;DHT22;11713;48.506;8.966;2023-04-06T11:32:04;13.50;97.20
23089;DHT22;11713;48.506;8.966;2023-04-06T11:34:34;13.70;95.90
23089;DHT22;11713;48.506;8.966;2023-04-06T11:37:08;13.90;94.60
23089;DHT22;11713;48.506;8.966;2023-04-06T11:39:40;13.90;95.00
23089;DHT22;11713;48.506;8.966;2023-04-06T11:42:06;13.80;95.10
23089;DHT22;11713;48.506;8.966;2023-04-06T11:46:58;14.00;95.50
23089;DHT22;11713;48.506;8.966;2023-04-06T11:49:31;14.00;93.60
23089;DHT22;11713;48.506;8.966;2023-04-06T11:51:58;14.20;96.70
23089;DHT22;11713;48.506;8.966;2023-04-06T11:55:09;14.50;96.50
23089;DHT22;11713;48.506;8.966;2023-04-06T12:10:28;14.50;94.00
23089;DHT22;11713;48.506;8.966;2023-04-06T12:12:54;14.70;96.20
23089;DHT22;11713;48.506;8.966;2023-04-06T12:15:20;14.80;93.70
23089;DHT22;11713;48.506;8.966;2023-04-06T12:17:46;14.70;91.90
23089;DHT22;11713;48.506;8.966;2023-04-06T12:20:12;14.80;86.70
23089;DHT22;11713;48.506;8.966;2023-04-06T12:22:39;15.10;89.00
23089;DHT22;11713;48.506;8.966;2023-04-06T12:25:05;15.30;87.10
23089;DHT22;11713;48.506;8.966;2023-04-06T12:27:32;15.40;90.10
23089;DHT22;11713;48.506;8.966;2023-04-06T12:29:58;15.50;87.40
23089;DHT22;11713;48.506;8.966;2023-04-06T12:32:24;15.80;90.10
23089;DHT22;11713;48.506;8.966;2023-04-06T12:34:53;15.90;87.80
23089;DHT22;11713;48.506;8.966;2023-04-06T12:37:19;16.10;90.40
23089;DHT22;11713;48.506;8.966;2023-04-06T12:40:06;16.20;87.30
23089;DHT22;11713;48.506;8.966;2023-04-06T12:42:53;16.10;81.70
23089;DHT22;11713;48.506;8.966;2023-04-06T12:45:34;15.70;79.00
23089;DHT22;11713;48.506;8.966;2023-04-06T12:48:00;16.00;84.00
23089;DHT22;11713;48.506;8.966;2023-04-06T12:50:25;16.20;87.70
23089;DHT22;11713;48.506;8.966;2023-04-06T12:52:52;16.40;86.80
23089;DHT22;11713;48.506;8.966;2023-04-06T12:55:17;16.40;81.80
23089;DHT22;11713;48.506;8.966;2023-04-06T12:57:45;16.20;84.90
23089;DHT22;11713;48.506;8.966;2023-04-06T13:00:11;16.10;81.80
23089;DHT22;11713;48.506;8.966;2023-04-06T13:02:37;16.00;81.70
23089;DHT22;11713;48.506;8.966;2023-04-06T13:05:04;16.20;82.60
23089;DHT22;11713;48.506;8.966;2023-04-06T13:07:30;16.40;84.50
23089;DHT22;11713;48.506;8.966;2023-04-06T13:09:56;16.60;80.70
23089;DHT22;11713;48.506;8.966;2023-04-06T13:12:22;16.40;80.10
23089;DHT22;11713;48.506;8.966;2023-04-06T13:14:48;16.30;83.50
23089;DHT22;11713;48.506;8.966;2023-04-06T13:17:16;15.90;80.30
23089;DHT22;11713;48.506;8.966;2023-04-06T13:19:43;15.60;80.10
23089;DHT22;11713;48.506;8.966;2023-04-06T13:22:09;15.70;82.50
23089;DHT22;11713;48.506;8.966;2023-04-06T13:24:34;15.60;82.10
23089;DHT22;11713;48.506;8.966;2023-04-06T13:27:00;15.70;83.30
23089;DHT22;11713;48.506;8.966;2023-04-06T13:29:26;15.50;82.40
23089;DHT22;11713;48.506;8.966;2023-04-06T13:31:53;15.30;82.90
23089;DHT22;11713;48.506;8.966;2023-04-06T13:34:18;15.30;83.90
23089;DHT22;11713;48.506;8.966;2023-04-06T13:40:40;15.50;82.70
23089;DHT22;11713;48.506;8.966;2023-04-06T13:43:06;15.50;80.60
23089;DHT22;11713;48.506;8.966;2023-04-06T13:45:33;15.60;79.20
23089;DHT22;11713;48.506;8.966;2023-04-06T13:47:59;15.40;82.30
23089;DHT22;11713;48.506;8.966;2023-04-06T13:50:28;15.30;79.90
23089;DHT22;11713;48.506;8.966;2023-04-06T13:52:55;15.40;79.30
23089;DHT22;11713;48.506;8.966;2023-04-06T13:55:22;15.30;82.20
23089;DHT22;11713;48.506;8.966;2023-04-06T13:57:51;15.10;82.60
23089;DHT22;11713;48.506;8.966;2023-04-06T14:00:18;15.00;82.20
23089;DHT22;11713;48.506;8.966;2023-04-06T14:02:44;14.90;82.60
23089;DHT22;11713;48.506;8.966;2023-04-06T14:05:11;15.00;82.20
23089;DHT22;11713;48.506;8.966;2023-04-06T14:07:37;15.00;84.90
23089;DHT22;11713;48.506;8.966;2023-04-06T14:10:03;14.90;84.90
23089;DHT22;11713;48.506;8.966;2023-04-06T14:12:30;14.70;84.50
23089;DHT22;11713;48.506;8.966;2023-04-06T14:14:57;14.70;82.70
23089;DHT22;11713;48.506;8.966;2023-04-06T14:17:23;14.80;84.00
23089;DHT22;11713;48.506;8.966;2023-04-06T14:19:48;15.00;83.90
23089;DHT22;11713;48.506;8.966;2023-04-06T14:22:14;15.20;85.20
23089;DHT22;11713;48.506;8.966;2023-04-06T14:24:40;15.60;86.20
23089;DHT22;11713;48.506;8.966;2023-04-06T14:27:06;15.80;83.10
23089;DHT22;11713;48.506;8.966;2023-04-06T14:29:32;15.90;84.90
23089;DHT22;11713;48.506;8.966;2023-04-06T14:31:58;16.00;81.50
23089;DHT22;11713;48.506;8.966;2023-04-06T14:34:27;16.20;83.00
23089;DHT22;11713;48.506;8.966;2023-04-06T14:36:53;16.40;83.50
23089;DHT22;11713;48.506;8.966;2023-04-06T14:39:19;16.50;84.20
23089;DHT22;11713;48.506;8.966;2023-04-06T14:41:45;16.60;85.40
23089;DHT22;11713;48.506;8.966;2023-04-06T14:44:16;16.30;80.30
23089;DHT22;11713;48.506;8.966;2023-04-06T14:46:42;16.40;81.90
23089;DHT22;11713;48.506;8.966;2023-04-06T14:49:08;16.50;84.40
23089;DHT22;11713;48.506;8.966;2023-04-06T14:51:34;16.50;82.20
23089;DHT22;11713;48.506;8.966;2023-04-06T14:54:01;16.50;81.60
23089;DHT22;11713;48.506;8.966;2023-04-06T14:56:30;16.30;79.80
23089;DHT22;11713;48.506;8.966;2023-04-06T14:59:20;16.20;79.30
23089;DHT22;11713;48.506;8.966;2023-04-06T15:01:46;15.60;80.00
23089;DHT22;11713;48.506;8.966;2023-04-06T15:08:17;15.50;82.90
23089;DHT22;11713;48.506;8.966;2023-04-06T15:10:46;15.60;82.70
23089;DHT22;11713;48.506;8.966;2023-04-06T15:13:12;15.60;83.60
23089;DHT22;11713;48.506;8.966;2023-04-06T15:15:40;15.20;82.40
23089;DHT22;11713;48.506;8.966;2023-04-06T15:18:06;14.80;83.10
23089;DHT22;11713;48.506;8.966;2023-04-06T15:20:32;14.50;84.30
23089;DHT22;11713;48.506;8.966;2023-04-06T15:22:58;14.30;83.40
23089;DHT22;11713;48.506;8.966;2023-04-06T15:25:24;14.40;85.60
23089;DHT22;11713;48.506;8.966;2023-04-06T15:27:50;14.40;87.10
23089;DHT22;11713;48.506;8.966;2023-04-06T15:30:17;14.30;82.80
23089;DHT22;11713;48.506;8.966;2023-04-06T15:35:36;14.50;86.20
23089;DHT22;11713;48.506;8.966;2023-04-06T15:38:08;14.50;84.20
23089;DHT22;11713;48.506;8.966;2023-04-06T15:40:34;14.50;86.70
23089;DHT22;11713;48.506;8.966;2023-04-06T15:43:08;14.60;86.20
23089;DHT22;11713;48.506;8.966;2023-04-06T15:45:36;14.60;87.90
23089;DHT22;11713;48.506;8.966;2023-04-06T15:48:02;14.50;86.70
23089;DHT22;11713;48.506;8.966;2023-04-06T15:50:28;14.40;89.60
23089;DHT22;11713;48.506;8.966;2023-04-06T15:52:54;14.40;88.30
23089;DHT22;11713;48.506;8.966;2023-04-06T15:55:19;14.30;89.60
23089;DHT22;11713;48.506;8.966;2023-04-06T15:57:45;14.30;90.10
23089;DHT22;11713;48.506;8.966;2023-04-06T16:00:11;14.30;90.50
23089;DHT22;11713;48.506;8.966;2023-04-06T16:02:37;14.20;91.10
23089;DHT22;11713;48.506;8.966;2023-04-06T16:05:03;14.10;90.00
23089;DHT22;11713;48.506;8.966;2023-04-06T16:07:30;14.00;90.40
23089;DHT22;11713;48.506;8.966;2023-04-06T16:09:57;13.90;91.00
23089;DHT22;11713;48.506;8.966;2023-04-06T16:12:23;13.90;89.60
23089;DHT22;11713;48.506;8.966;2023-04-06T16:14:49;13.70;90.20
23089;DHT22;11713;48.506;8.966;2023-04-06T16:17:15;13.50;89.00
23089;DHT22;11713;48.506;8.966;2023-04-06T16:19:43;13.40;91.50
23089;DHT22;11713;48.506;8.966;2023-04-06T16:22:08;13.30;92.00
23089;DHT22;11713;48.506;8.966;2023-04-06T16:24:34;13.30;91.40